Погода Дзежгоньна 2 недели

Поморское воеводство, Польша

19 июля-01 августа
  • 19июля
    Сегодня
    +13°
    +22°
    Облачно с прояснениями
    ВремяПогодаТемператураВлажностьДавлениеВетер, м/сВероятность осадков
    02:00Ясно и безоблачно+14°C90 %766 мм2.4 м/с2 %
    05:00Ясно и безоблачно+14°C95 %766 мм2.8 м/с2 %
    08:00Практически безоблачно+17°C81 %766 мм3.1 м/с2 %
    11:00Пасмурно, сплошная облачность+19°C63 %766 мм3.4 м/с9 %
    14:00Облачно с прояснениями+21°C53 %765 мм3.2 м/с3 %
    17:00Ясно и безоблачно+21°C59 %764 мм3.2 м/с2 %
    20:00Ясно и безоблачно+18°C76 %763 мм2.8 м/с2 %
    23:00Ясно и безоблачно+15°C94 %763 мм1.4 м/с2 %
  • 20июля
    Суббота
    +14°
    +23°
    Облачно с прояснениями
    ВремяПогодаТемператураВлажностьДавлениеВетер, м/сВероятность осадков
    02:00Ясно и безоблачно+14°C97 %762 мм1.6 м/с2 %
    05:00Облачно с прояснениями+14°C99 %762 мм2.0 м/с2 %
    08:00Ясно и безоблачно+16°C87 %761 мм1.9 м/с2 %
    11:00Практически безоблачно+20°C66 %761 мм2.0 м/с2 %
    14:00Облачно с прояснениями+22°C57 %760 мм2.4 м/с2 %
    17:00Небольшая облачность+23°C46 %759 мм2.7 м/с2 %
    20:00Ясно и безоблачно+19°C69 %759 мм2.4 м/с2 %
    23:00Ясно и безоблачно+16°C94 %758 мм1.5 м/с2 %
  • 21июля
    Воскресенье
    +16°
    +25°
    Практически безоблачно
    ВремяПогодаТемператураВлажностьДавлениеВетер, м/сВероятность осадков
    02:00Практически безоблачно+15°C98 %758 мм1.8 м/с2 %
    05:00Облачно с прояснениями+15°C99 %758 мм2.1 м/с2 %
    08:00Ясно и безоблачно+19°C83 %758 мм1.6 м/с2 %
    11:00Практически безоблачно+22°C57 %758 мм2.1 м/с2 %
    14:00Практически безоблачно+24°C48 %757 мм2.2 м/с7 %
    17:00Ясно и безоблачно+24°C55 %757 мм3.6 м/с3 %
    20:00Ясно и безоблачно+20°C65 %757 мм3.1 м/с2 %
    23:00Ясно и безоблачно+18°C74 %757 мм2.0 м/с2 %
  • 22июля
    Понедельник
    +16°
    +27°
    Облачно с прояснениями
    ВремяПогодаТемператураВлажностьДавлениеВетер, м/сВероятность осадков
    02:00Ясно и безоблачно+17°C83 %757 мм2.4 м/с2 %
    05:00Ясно и безоблачно+16°C93 %757 мм2.3 м/с2 %
    08:00Ясно и безоблачно+20°C75 %757 мм2.0 м/с2 %
    11:00Практически безоблачно+24°C54 %757 мм2.3 м/с2 %
    14:00Облачно с прояснениями+26°C48 %757 мм2.3 м/с26 %
    17:00Облачно с прояснениями+25°C49 %757 мм2.9 м/с35 %
    20:00Облачно с прояснениями+21°C65 %758 мм2.3 м/с38 %
    23:00Пасмурно, ливень+18°C82 %759 мм2.3 м/с29 %
  • 23июля
    Вторник
    +13°
    +20°
    Практически безоблачно
    ВремяПогодаТемператураВлажностьДавлениеВетер, м/сВероятность осадков
    02:00Небольшая облачность, ливень+18°C95 %760 мм2.5 м/с28 %
    05:00Пасмурно, небольшой дождь+17°C93 %760 мм3.3 м/с30 %
    08:00Небольшая облачность+17°C82 %761 мм3.0 м/с25 %
    11:00Практически безоблачно+18°C67 %761 мм3.0 м/с36 %
    14:00Практически безоблачно+19°C64 %761 мм2.9 м/с37 %
    17:00Ясно и безоблачно+19°C64 %761 мм3.5 м/с30 %
    20:00Ясно и безоблачно+17°C68 %761 мм2.6 м/с23 %
    23:00Ясно и безоблачно+15°C86 %761 мм1.3 м/с17 %
Мы используем cookies
Соглашаюсь